sensor_id;sensor_type;location;lat;lon;timestamp;pressure;altitude;pressure_sealevel;temperature
25514;BMP180;48128;54.242;10.280;2023-11-18T00:02:15;101951.00;;;4.60
25514;BMP180;48128;54.242;10.280;2023-11-18T00:04:42;101948.00;;;4.60
25514;BMP180;48128;54.242;10.280;2023-11-18T00:07:09;101947.00;;;4.60
25514;BMP180;48128;54.242;10.280;2023-11-18T00:09:36;101934.00;;;4.60
25514;BMP180;48128;54.242;10.280;2023-11-18T00:12:03;101944.00;;;4.60
25514;BMP180;48128;54.242;10.280;2023-11-18T00:14:30;101935.00;;;4.60
25514;BMP180;48128;54.242;10.280;2023-11-18T00:16:57;101935.00;;;4.60
25514;BMP180;48128;54.242;10.280;2023-11-18T00:19:26;101929.00;;;4.70
25514;BMP180;48128;54.242;10.280;2023-11-18T00:21:53;101932.00;;;4.60
25514;BMP180;48128;54.242;10.280;2023-11-18T00:24:20;101931.00;;;4.60
25514;BMP180;48128;54.242;10.280;2023-11-18T00:26:47;101928.00;;;4.60
25514;BMP180;48128;54.242;10.280;2023-11-18T00:29:14;101927.00;;;4.60
25514;BMP180;48128;54.242;10.280;2023-11-18T00:31:41;101923.00;;;4.60
25514;BMP180;48128;54.242;10.280;2023-11-18T00:34:08;101941.00;;;4.60
25514;BMP180;48128;54.242;10.280;2023-11-18T00:36:36;101935.00;;;4.60
25514;BMP180;48128;54.242;10.280;2023-11-18T00:39:02;101930.00;;;4.60
25514;BMP180;48128;54.242;10.280;2023-11-18T00:41:31;101937.00;;;4.60
25514;BMP180;48128;54.242;10.280;2023-11-18T00:43:57;101942.00;;;4.60
25514;BMP180;48128;54.242;10.280;2023-11-18T00:46:24;101934.00;;;4.50
25514;BMP180;48128;54.242;10.280;2023-11-18T00:48:52;101952.00;;;4.50
25514;BMP180;48128;54.242;10.280;2023-11-18T00:51:18;101933.00;;;4.50
25514;BMP180;48128;54.242;10.280;2023-11-18T00:53:45;101937.00;;;4.50
25514;BMP180;48128;54.242;10.280;2023-11-18T00:56:15;101941.00;;;4.50
25514;BMP180;48128;54.242;10.280;2023-11-18T00:58:44;101928.00;;;4.50
25514;BMP180;48128;54.242;10.280;2023-11-18T01:01:11;101928.00;;;4.40
25514;BMP180;48128;54.242;10.280;2023-11-18T01:03:38;101924.00;;;4.30
25514;BMP180;48128;54.242;10.280;2023-11-18T01:06:05;101926.00;;;4.30
25514;BMP180;48128;54.242;10.280;2023-11-18T01:08:33;101926.00;;;4.20
25514;BMP180;48128;54.242;10.280;2023-11-18T01:10:59;101934.00;;;4.10
25514;BMP180;48128;54.242;10.280;2023-11-18T01:13:26;101928.00;;;4.00
25514;BMP180;48128;54.242;10.280;2023-11-18T01:15:53;101922.00;;;3.80
25514;BMP180;48128;54.242;10.280;2023-11-18T01:18:20;101943.00;;;3.70
25514;BMP180;48128;54.242;10.280;2023-11-18T01:20:47;101935.00;;;3.60
25514;BMP180;48128;54.242;10.280;2023-11-18T01:23:15;101934.00;;;3.50
25514;BMP180;48128;54.242;10.280;2023-11-18T01:25:42;101936.00;;;3.40
25514;BMP180;48128;54.242;10.280;2023-11-18T01:28:09;101929.00;;;3.30
25514;BMP180;48128;54.242;10.280;2023-11-18T01:30:36;101925.00;;;3.20
25514;BMP180;48128;54.242;10.280;2023-11-18T01:33:03;101922.00;;;3.20
25514;BMP180;48128;54.242;10.280;2023-11-18T01:35:30;101940.00;;;3.10
25514;BMP180;48128;54.242;10.280;2023-11-18T01:37:58;101938.00;;;3.00
25514;BMP180;48128;54.242;10.280;2023-11-18T01:40:25;101930.00;;;3.00
25514;BMP180;48128;54.242;10.280;2023-11-18T01:42:52;101930.00;;;2.90
25514;BMP180;48128;54.242;10.280;2023-11-18T01:45:19;101935.00;;;2.80
25514;BMP180;48128;54.242;10.280;2023-11-18T01:47:46;101929.00;;;2.80
25514;BMP180;48128;54.242;10.280;2023-11-18T01:50:15;101936.00;;;2.70
25514;BMP180;48128;54.242;10.280;2023-11-18T01:52:44;101931.00;;;2.60
25514;BMP180;48128;54.242;10.280;2023-11-18T01:55:13;101943.00;;;2.50
25514;BMP180;48128;54.242;10.280;2023-11-18T01:57:40;101934.00;;;2.50
25514;BMP180;48128;54.242;10.280;2023-11-18T02:00:11;101937.00;;;2.40
25514;BMP180;48128;54.242;10.280;2023-11-18T02:02:38;101938.00;;;2.40
25514;BMP180;48128;54.242;10.280;2023-11-18T02:05:06;101927.00;;;2.40
25514;BMP180;48128;54.242;10.280;2023-11-18T02:07:34;101929.00;;;2.50
25514;BMP180;48128;54.242;10.280;2023-11-18T02:10:04;101926.00;;;2.50
25514;BMP180;48128;54.242;10.280;2023-11-18T02:12:55;101914.00;;;2.60
25514;BMP180;48128;54.242;10.280;2023-11-18T02:15:24;101922.00;;;2.60
25514;BMP180;48128;54.242;10.280;2023-11-18T02:17:53;101927.00;;;2.70
25514;BMP180;48128;54.242;10.280;2023-11-18T02:20:20;101915.00;;;2.70
25514;BMP180;48128;54.242;10.280;2023-11-18T02:22:48;101927.00;;;2.80
25514;BMP180;48128;54.242;10.280;2023-11-18T02:25:16;101930.00;;;2.80
25514;BMP180;48128;54.242;10.280;2023-11-18T02:27:43;101923.00;;;2.80
25514;BMP180;48128;54.242;10.280;2023-11-18T02:30:12;101944.00;;;2.80
25514;BMP180;48128;54.242;10.280;2023-11-18T02:33:07;101943.00;;;2.80
25514;BMP180;48128;54.242;10.280;2023-11-18T02:35:45;101956.00;;;2.90
25514;BMP180;48128;54.242;10.280;2023-11-18T02:38:17;101951.00;;;2.90
25514;BMP180;48128;54.242;10.280;2023-11-18T02:40:44;101949.00;;;3.00
25514;BMP180;48128;54.242;10.280;2023-11-18T02:43:12;101956.00;;;3.00
25514;BMP180;48128;54.242;10.280;2023-11-18T02:45:39;101957.00;;;3.10
25514;BMP180;48128;54.242;10.280;2023-11-18T02:48:08;101949.00;;;3.10
25514;BMP180;48128;54.242;10.280;2023-11-18T02:50:35;101946.00;;;3.10
25514;BMP180;48128;54.242;10.280;2023-11-18T02:53:03;101950.00;;;3.10
25514;BMP180;48128;54.242;10.280;2023-11-18T02:55:30;101948.00;;;3.20
25514;BMP180;48128;54.242;10.280;2023-11-18T02:57:57;101942.00;;;3.20
25514;BMP180;48128;54.242;10.280;2023-11-18T03:00:24;101939.00;;;3.20
25514;BMP180;48128;54.242;10.280;2023-11-18T03:02:51;101950.00;;;3.20
25514;BMP180;48128;54.242;10.280;2023-11-18T03:05:20;101942.00;;;3.20
25514;BMP180;48128;54.242;10.280;2023-11-18T03:07:48;101948.00;;;3.20
25514;BMP180;48128;54.242;10.280;2023-11-18T03:10:20;101950.00;;;3.20
25514;BMP180;48128;54.242;10.280;2023-11-18T03:12:52;101941.00;;;3.20
25514;BMP180;48128;54.242;10.280;2023-11-18T03:15:23;101945.00;;;3.30
25514;BMP180;48128;54.242;10.280;2023-11-18T03:17:50;101950.00;;;3.20
25514;BMP180;48128;54.242;10.280;2023-11-18T03:20:18;101947.00;;;3.30
25514;BMP180;48128;54.242;10.280;2023-11-18T03:22:46;101945.00;;;3.30
25514;BMP180;48128;54.242;10.280;2023-11-18T03:25:13;101954.00;;;3.30
25514;BMP180;48128;54.242;10.280;2023-11-18T03:27:41;101955.00;;;3.30
25514;BMP180;48128;54.242;10.280;2023-11-18T03:30:08;101971.00;;;3.30
25514;BMP180;48128;54.242;10.280;2023-11-18T03:32:36;101965.00;;;3.30
25514;BMP180;48128;54.242;10.280;2023-11-18T03:35:04;101962.00;;;3.30
25514;BMP180;48128;54.242;10.280;2023-11-18T03:37:36;101954.00;;;3.30
25514;BMP180;48128;54.242;10.280;2023-11-18T03:40:09;101971.00;;;3.30
25514;BMP180;48128;54.242;10.280;2023-11-18T03:42:37;101954.00;;;3.30
25514;BMP180;48128;54.242;10.280;2023-11-18T03:45:04;101950.00;;;3.30
25514;BMP180;48128;54.242;10.280;2023-11-18T03:47:31;101948.00;;;3.20
25514;BMP180;48128;54.242;10.280;2023-11-18T03:50:00;101958.00;;;3.20
25514;BMP180;48128;54.242;10.280;2023-11-18T03:52:27;101953.00;;;3.20
25514;BMP180;48128;54.242;10.280;2023-11-18T03:54:56;101974.00;;;3.20
25514;BMP180;48128;54.242;10.280;2023-11-18T03:57:23;101970.00;;;3.20
25514;BMP180;48128;54.242;10.280;2023-11-18T03:59:50;101965.00;;;3.20
25514;BMP180;48128;54.242;10.280;2023-11-18T04:02:17;101978.00;;;3.20
25514;BMP180;48128;54.242;10.280;2023-11-18T04:04:44;101978.00;;;3.20
25514;BMP180;48128;54.242;10.280;2023-11-18T04:07:11;101989.00;;;3.20
25514;BMP180;48128;54.242;10.280;2023-11-18T04:09:38;101976.00;;;3.20
25514;BMP180;48128;54.242;10.280;2023-11-18T04:12:08;101981.00;;;3.20
25514;BMP180;48128;54.242;10.280;2023-11-18T04:14:35;101980.00;;;3.20
25514;BMP180;48128;54.242;10.280;2023-11-18T04:17:02;101997.00;;;3.20
25514;BMP180;48128;54.242;10.280;2023-11-18T04:19:29;101995.00;;;3.10
25514;BMP180;48128;54.242;10.280;2023-11-18T04:21:56;101998.00;;;3.10
25514;BMP180;48128;54.242;10.280;2023-11-18T04:24:23;101993.00;;;3.10
25514;BMP180;48128;54.242;10.280;2023-11-18T04:26:50;101984.00;;;3.10
25514;BMP180;48128;54.242;10.280;2023-11-18T04:29:17;101989.00;;;3.10
25514;BMP180;48128;54.242;10.280;2023-11-18T04:31:45;101993.00;;;3.10
25514;BMP180;48128;54.242;10.280;2023-11-18T04:34:12;101985.00;;;3.20
25514;BMP180;48128;54.242;10.280;2023-11-18T04:36:41;101974.00;;;3.20
25514;BMP180;48128;54.242;10.280;2023-11-18T04:39:08;101967.00;;;3.20
25514;BMP180;48128;54.242;10.280;2023-11-18T04:41:38;101980.00;;;3.20
25514;BMP180;48128;54.242;10.280;2023-11-18T04:44:05;101977.00;;;3.20
25514;BMP180;48128;54.242;10.280;2023-11-18T04:46:32;101973.00;;;3.20
25514;BMP180;48128;54.242;10.280;2023-11-18T04:48:59;101971.00;;;3.20
25514;BMP180;48128;54.242;10.280;2023-11-18T04:51:28;101968.00;;;3.20
25514;BMP180;48128;54.242;10.280;2023-11-18T04:53:55;101979.00;;;3.20
25514;BMP180;48128;54.242;10.280;2023-11-18T04:56:22;101966.00;;;3.20
25514;BMP180;48128;54.242;10.280;2023-11-18T04:58:49;101960.00;;;3.20
25514;BMP180;48128;54.242;10.280;2023-11-18T05:01:17;101970.00;;;3.20
25514;BMP180;48128;54.242;10.280;2023-11-18T05:03:45;101963.00;;;3.20
25514;BMP180;48128;54.242;10.280;2023-11-18T05:06:12;101962.00;;;3.20
25514;BMP180;48128;54.242;10.280;2023-11-18T05:08:38;101955.00;;;3.20
25514;BMP180;48128;54.242;10.280;2023-11-18T05:11:06;101958.00;;;3.30
25514;BMP180;48128;54.242;10.280;2023-11-18T05:13:33;101962.00;;;3.30
25514;BMP180;48128;54.242;10.280;2023-11-18T05:16:01;101973.00;;;3.30
25514;BMP180;48128;54.242;10.280;2023-11-18T05:18:27;101968.00;;;3.30
25514;BMP180;48128;54.242;10.280;2023-11-18T05:21:00;101972.00;;;3.30
25514;BMP180;48128;54.242;10.280;2023-11-18T05:23:27;101971.00;;;3.30
25514;BMP180;48128;54.242;10.280;2023-11-18T05:25:56;101974.00;;;3.30
25514;BMP180;48128;54.242;10.280;2023-11-18T05:28:23;101963.00;;;3.30
25514;BMP180;48128;54.242;10.280;2023-11-18T05:30:51;101969.00;;;3.20
25514;BMP180;48128;54.242;10.280;2023-11-18T05:33:18;101958.00;;;3.20
25514;BMP180;48128;54.242;10.280;2023-11-18T05:35:46;101955.00;;;3.20
25514;BMP180;48128;54.242;10.280;2023-11-18T05:38:16;101945.00;;;3.30
25514;BMP180;48128;54.242;10.280;2023-11-18T05:40:48;101953.00;;;3.30
25514;BMP180;48128;54.242;10.280;2023-11-18T05:43:27;101953.00;;;3.30
25514;BMP180;48128;54.242;10.280;2023-11-18T05:46:04;101958.00;;;3.30
25514;BMP180;48128;54.242;10.280;2023-11-18T05:48:52;101946.00;;;3.20
25514;BMP180;48128;54.242;10.280;2023-11-18T05:51:26;101948.00;;;3.20
25514;BMP180;48128;54.242;10.280;2023-11-18T05:53:53;101941.00;;;3.30
25514;BMP180;48128;54.242;10.280;2023-11-18T05:56:20;101938.00;;;3.30
25514;BMP180;48128;54.242;10.280;2023-11-18T05:58:52;101957.00;;;3.30
25514;BMP180;48128;54.242;10.280;2023-11-18T06:01:22;101937.00;;;3.30
25514;BMP180;48128;54.242;10.280;2023-11-18T06:03:49;101940.00;;;3.20
25514;BMP180;48128;54.242;10.280;2023-11-18T06:06:17;101934.00;;;3.20
25514;BMP180;48128;54.242;10.280;2023-11-18T06:08:49;101939.00;;;3.20
25514;BMP180;48128;54.242;10.280;2023-11-18T06:11:16;101933.00;;;3.20
25514;BMP180;48128;54.242;10.280;2023-11-18T06:13:47;101935.00;;;3.10
25514;BMP180;48128;54.242;10.280;2023-11-18T06:16:16;101952.00;;;3.10
25514;BMP180;48128;54.242;10.280;2023-11-18T06:18:44;101944.00;;;3.10
25514;BMP180;48128;54.242;10.280;2023-11-18T06:21:13;101942.00;;;3.10
25514;BMP180;48128;54.242;10.280;2023-11-18T06:23:41;101930.00;;;3.10
25514;BMP180;48128;54.242;10.280;2023-11-18T06:26:09;101931.00;;;3.00
25514;BMP180;48128;54.242;10.280;2023-11-18T06:28:42;101938.00;;;3.00
25514;BMP180;48128;54.242;10.280;2023-11-18T06:31:10;101938.00;;;2.90
25514;BMP180;48128;54.242;10.280;2023-11-18T06:33:42;101940.00;;;2.80
25514;BMP180;48128;54.242;10.280;2023-11-18T06:38:46;101950.00;;;2.70
25514;BMP180;48128;54.242;10.280;2023-11-18T06:41:13;101946.00;;;2.70
25514;BMP180;48128;54.242;10.280;2023-11-18T06:43:46;101951.00;;;2.70
25514;BMP180;48128;54.242;10.280;2023-11-18T06:46:26;101945.00;;;2.70
25514;BMP180;48128;54.242;10.280;2023-11-18T06:48:55;101955.00;;;2.80
25514;BMP180;48128;54.242;10.280;2023-11-18T06:51:26;101960.00;;;2.80
25514;BMP180;48128;54.242;10.280;2023-11-18T06:53:54;101957.00;;;2.90
25514;BMP180;48128;54.242;10.280;2023-11-18T06:56:26;101950.00;;;2.90
25514;BMP180;48128;54.242;10.280;2023-11-18T06:58:53;101961.00;;;2.90
25514;BMP180;48128;54.242;10.280;2023-11-18T07:01:20;101964.00;;;3.00
25514;BMP180;48128;54.242;10.280;2023-11-18T07:03:48;101950.00;;;3.00
25514;BMP180;48128;54.242;10.280;2023-11-18T07:06:19;101967.00;;;3.00
25514;BMP180;48128;54.242;10.280;2023-11-18T07:08:49;101966.00;;;3.00
25514;BMP180;48128;54.242;10.280;2023-11-18T07:11:17;101958.00;;;3.00
25514;BMP180;48128;54.242;10.280;2023-11-18T07:13:44;101955.00;;;3.10
25514;BMP180;48128;54.242;10.280;2023-11-18T07:16:11;101955.00;;;3.00
25514;BMP180;48128;54.242;10.280;2023-11-18T07:18:39;101943.00;;;2.90
25514;BMP180;48128;54.242;10.280;2023-11-18T07:21:06;101961.00;;;2.90
25514;BMP180;48128;54.242;10.280;2023-11-18T07:23:33;101956.00;;;2.90
25514;BMP180;48128;54.242;10.280;2023-11-18T07:26:01;101958.00;;;2.90
25514;BMP180;48128;54.242;10.280;2023-11-18T07:28:28;101967.00;;;2.80
25514;BMP180;48128;54.242;10.280;2023-11-18T07:30:55;101971.00;;;2.70
25514;BMP180;48128;54.242;10.280;2023-11-18T07:33:22;101975.00;;;2.60
25514;BMP180;48128;54.242;10.280;2023-11-18T07:35:49;101975.00;;;2.60
25514;BMP180;48128;54.242;10.280;2023-11-18T07:38:16;101983.00;;;2.50
25514;BMP180;48128;54.242;10.280;2023-11-18T07:40:46;101983.00;;;2.50
25514;BMP180;48128;54.242;10.280;2023-11-18T07:43:16;101993.00;;;2.50
25514;BMP180;48128;54.242;10.280;2023-11-18T07:45:43;101990.00;;;2.50
25514;BMP180;48128;54.242;10.280;2023-11-18T07:48:10;102002.00;;;2.40
25514;BMP180;48128;54.242;10.280;2023-11-18T07:50:40;102000.00;;;2.40
25514;BMP180;48128;54.242;10.280;2023-11-18T07:53:07;102003.00;;;2.40
25514;BMP180;48128;54.242;10.280;2023-11-18T07:55:34;101996.00;;;2.30
25514;BMP180;48128;54.242;10.280;2023-11-18T07:58:01;102002.00;;;2.30
25514;BMP180;48128;54.242;10.280;2023-11-18T08:00:30;102004.00;;;2.20
25514;BMP180;48128;54.242;10.280;2023-11-18T08:02:57;102006.00;;;2.30
25514;BMP180;48128;54.242;10.280;2023-11-18T08:05:27;101998.00;;;2.30
25514;BMP180;48128;54.242;10.280;2023-11-18T08:07:54;101998.00;;;2.30
25514;BMP180;48128;54.242;10.280;2023-11-18T08:10:21;101994.00;;;2.40
25514;BMP180;48128;54.242;10.280;2023-11-18T08:12:48;101996.00;;;2.40
25514;BMP180;48128;54.242;10.280;2023-11-18T08:15:15;101990.00;;;2.30
25514;BMP180;48128;54.242;10.280;2023-11-18T08:17:42;101990.00;;;2.30
25514;BMP180;48128;54.242;10.280;2023-11-18T08:20:10;101975.00;;;2.30
25514;BMP180;48128;54.242;10.280;2023-11-18T08:22:43;101985.00;;;2.40
25514;BMP180;48128;54.242;10.280;2023-11-18T08:25:12;101989.00;;;2.40
25514;BMP180;48128;54.242;10.280;2023-11-18T08:27:40;101988.00;;;2.50
25514;BMP180;48128;54.242;10.280;2023-11-18T08:30:08;101988.00;;;2.50
25514;BMP180;48128;54.242;10.280;2023-11-18T08:32:38;101997.00;;;2.60
25514;BMP180;48128;54.242;10.280;2023-11-18T08:35:06;101997.00;;;2.60
25514;BMP180;48128;54.242;10.280;2023-11-18T08:37:36;101997.00;;;2.70
25514;BMP180;48128;54.242;10.280;2023-11-18T08:40:04;101999.00;;;2.70
25514;BMP180;48128;54.242;10.280;2023-11-18T08:42:43;101999.00;;;2.70
25514;BMP180;48128;54.242;10.280;2023-11-18T08:45:16;101998.00;;;2.70
25514;BMP180;48128;54.242;10.280;2023-11-18T08:47:44;101980.00;;;2.80
25514;BMP180;48128;54.242;10.280;2023-11-18T08:50:13;101976.00;;;2.80
25514;BMP180;48128;54.242;10.280;2023-11-18T08:52:40;101964.00;;;2.80
25514;BMP180;48128;54.242;10.280;2023-11-18T08:55:18;101959.00;;;2.80
25514;BMP180;48128;54.242;10.280;2023-11-18T08:57:48;101958.00;;;2.90
25514;BMP180;48128;54.242;10.280;2023-11-18T09:00:31;101958.00;;;3.00
25514;BMP180;48128;54.242;10.280;2023-11-18T09:03:16;101949.00;;;3.10
25514;BMP180;48128;54.242;10.280;2023-11-18T09:05:54;101952.00;;;3.20
25514;BMP180;48128;54.242;10.280;2023-11-18T09:08:25;101964.00;;;3.30
25514;BMP180;48128;54.242;10.280;2023-11-18T09:10:54;101961.00;;;3.40
25514;BMP180;48128;54.242;10.280;2023-11-18T09:13:22;101974.00;;;3.40
25514;BMP180;48128;54.242;10.280;2023-11-18T09:15:49;101987.00;;;3.40
25514;BMP180;48128;54.242;10.280;2023-11-18T09:18:16;101980.00;;;3.50
25514;BMP180;48128;54.242;10.280;2023-11-18T09:20:44;101985.00;;;3.60
25514;BMP180;48128;54.242;10.280;2023-11-18T09:23:14;101970.00;;;3.70
25514;BMP180;48128;54.242;10.280;2023-11-18T09:25:42;101981.00;;;3.70
25514;BMP180;48128;54.242;10.280;2023-11-18T09:28:14;101984.00;;;3.70
25514;BMP180;48128;54.242;10.280;2023-11-18T09:30:42;101978.00;;;3.80
25514;BMP180;48128;54.242;10.280;2023-11-18T09:33:33;101976.00;;;3.80
25514;BMP180;48128;54.242;10.280;2023-11-18T09:36:05;101971.00;;;3.90
25514;BMP180;48128;54.242;10.280;2023-11-18T09:38:36;101968.00;;;4.10
25514;BMP180;48128;54.242;10.280;2023-11-18T09:41:04;101964.00;;;4.20
25514;BMP180;48128;54.242;10.280;2023-11-18T09:43:38;101961.00;;;4.20
25514;BMP180;48128;54.242;10.280;2023-11-18T09:46:28;101967.00;;;4.30
25514;BMP180;48128;54.242;10.280;2023-11-18T09:49:10;101958.00;;;4.20
25514;BMP180;48128;54.242;10.280;2023-11-18T09:51:44;101966.00;;;4.20
25514;BMP180;48128;54.242;10.280;2023-11-18T09:54:23;101954.00;;;4.30
25514;BMP180;48128;54.242;10.280;2023-11-18T09:57:08;101960.00;;;4.50
25514;BMP180;48128;54.242;10.280;2023-11-18T09:59:49;101951.00;;;4.70
25514;BMP180;48128;54.242;10.280;2023-11-18T10:02:24;101956.00;;;5.00
25514;BMP180;48128;54.242;10.280;2023-11-18T10:04:52;101951.00;;;5.10
25514;BMP180;48128;54.242;10.280;2023-11-18T10:07:25;101945.00;;;5.10
25514;BMP180;48128;54.242;10.280;2023-11-18T10:09:59;101963.00;;;5.00
25514;BMP180;48128;54.242;10.280;2023-11-18T10:12:29;101964.00;;;5.00
25514;BMP180;48128;54.242;10.280;2023-11-18T10:14:56;101961.00;;;4.90
25514;BMP180;48128;54.242;10.280;2023-11-18T10:17:25;101951.00;;;4.80
25514;BMP180;48128;54.242;10.280;2023-11-18T10:19:57;101953.00;;;4.70
25514;BMP180;48128;54.242;10.280;2023-11-18T10:22:28;101957.00;;;4.70
25514;BMP180;48128;54.242;10.280;2023-11-18T10:24:57;101952.00;;;4.60
25514;BMP180;48128;54.242;10.280;2023-11-18T10:27:25;101939.00;;;4.50
25514;BMP180;48128;54.242;10.280;2023-11-18T10:29:56;101941.00;;;4.40
25514;BMP180;48128;54.242;10.280;2023-11-18T10:32:23;101930.00;;;4.60
25514;BMP180;48128;54.242;10.280;2023-11-18T10:34:57;101917.00;;;4.80
25514;BMP180;48128;54.242;10.280;2023-11-18T10:37:25;101922.00;;;5.00
25514;BMP180;48128;54.242;10.280;2023-11-18T10:39:52;101914.00;;;5.10
25514;BMP180;48128;54.242;10.280;2023-11-18T10:42:20;101913.00;;;5.30
25514;BMP180;48128;54.242;10.280;2023-11-18T10:44:57;101907.00;;;5.40
25514;BMP180;48128;54.242;10.280;2023-11-18T10:47:33;101923.00;;;5.60
25514;BMP180;48128;54.242;10.280;2023-11-18T10:50:02;101927.00;;;5.70
25514;BMP180;48128;54.242;10.280;2023-11-18T10:52:30;101932.00;;;5.80
25514;BMP180;48128;54.242;10.280;2023-11-18T10:55:02;101920.00;;;6.00
25514;BMP180;48128;54.242;10.280;2023-11-18T10:57:39;101915.00;;;6.00
25514;BMP180;48128;54.242;10.280;2023-11-18T11:00:09;101908.00;;;6.00
25514;BMP180;48128;54.242;10.280;2023-11-18T11:02:46;101910.00;;;6.10
25514;BMP180;48128;54.242;10.280;2023-11-18T11:05:29;101907.00;;;6.20
25514;BMP180;48128;54.242;10.280;2023-11-18T11:08:02;101915.00;;;6.20
25514;BMP180;48128;54.242;10.280;2023-11-18T11:10:32;101916.00;;;6.30
25514;BMP180;48128;54.242;10.280;2023-11-18T11:13:00;101921.00;;;6.30
25514;BMP180;48128;54.242;10.280;2023-11-18T11:15:29;101899.00;;;6.40
25514;BMP180;48128;54.242;10.280;2023-11-18T11:18:17;101903.00;;;6.40
25514;BMP180;48128;54.242;10.280;2023-11-18T11:23:53;101900.00;;;6.30
25514;BMP180;48128;54.242;10.280;2023-11-18T11:29:24;101901.00;;;6.00
25514;BMP180;48128;54.242;10.280;2023-11-18T11:34:56;101885.00;;;6.00
25514;BMP180;48128;54.242;10.280;2023-11-18T11:37:26;101881.00;;;6.10
25514;BMP180;48128;54.242;10.280;2023-11-18T11:39:54;101877.00;;;6.20
25514;BMP180;48128;54.242;10.280;2023-11-18T11:42:25;101876.00;;;6.30
25514;BMP180;48128;54.242;10.280;2023-11-18T11:44:53;101870.00;;;6.40
25514;BMP180;48128;54.242;10.280;2023-11-18T11:47:22;101862.00;;;6.60
25514;BMP180;48128;54.242;10.280;2023-11-18T11:50:15;101865.00;;;6.70
25514;BMP180;48128;54.242;10.280;2023-11-18T11:52:56;101862.00;;;6.70
25514;BMP180;48128;54.242;10.280;2023-11-18T11:55:31;101848.00;;;6.60
25514;BMP180;48128;54.242;10.280;2023-11-18T11:58:00;101858.00;;;6.50
25514;BMP180;48128;54.242;10.280;2023-11-18T12:00:27;101856.00;;;6.40
25514;BMP180;48128;54.242;10.280;2023-11-18T12:03:01;101857.00;;;6.40
25514;BMP180;48128;54.242;10.280;2023-11-18T12:05:31;101839.00;;;6.40
25514;BMP180;48128;54.242;10.280;2023-11-18T12:08:00;101824.00;;;6.40
25514;BMP180;48128;54.242;10.280;2023-11-18T12:10:30;101833.00;;;6.40
25514;BMP180;48128;54.242;10.280;2023-11-18T12:13:09;101838.00;;;6.50
25514;BMP180;48128;54.242;10.280;2023-11-18T12:15:51;101840.00;;;6.50
25514;BMP180;48128;54.242;10.280;2023-11-18T12:18:22;101869.00;;;6.40
25514;BMP180;48128;54.242;10.280;2023-11-18T12:20:49;101854.00;;;6.40
25514;BMP180;48128;54.242;10.280;2023-11-18T12:23:24;101860.00;;;6.30
25514;BMP180;48128;54.242;10.280;2023-11-18T12:25:53;101877.00;;;6.20
25514;BMP180;48128;54.242;10.280;2023-11-18T12:28:29;101875.00;;;6.10
25514;BMP180;48128;54.242;10.280;2023-11-18T12:31:02;101870.00;;;6.10
25514;BMP180;48128;54.242;10.280;2023-11-18T12:42:02;101869.00;;;6.00
25514;BMP180;48128;54.242;10.280;2023-11-18T12:45:43;101874.00;;;6.00
25514;BMP180;48128;54.242;10.280;2023-11-18T12:47:44;101857.00;;;6.00
25514;BMP180;48128;54.242;10.280;2023-11-18T12:50:12;101851.00;;;6.00
25514;BMP180;48128;54.242;10.280;2023-11-18T12:52:53;101839.00;;;6.00
25514;BMP180;48128;54.242;10.280;2023-11-18T12:55:20;101817.00;;;6.00
25514;BMP180;48128;54.242;10.280;2023-11-18T12:57:48;101822.00;;;6.00
25514;BMP180;48128;54.242;10.280;2023-11-18T13:00:18;101828.00;;;5.90
25514;BMP180;48128;54.242;10.280;2023-11-18T13:02:54;101830.00;;;5.90
25514;BMP180;48128;54.242;10.280;2023-11-18T13:05:22;101841.00;;;6.00
25514;BMP180;48128;54.242;10.280;2023-11-18T13:07:49;101851.00;;;6.00
25514;BMP180;48128;54.242;10.280;2023-11-18T13:10:16;101836.00;;;6.10
25514;BMP180;48128;54.242;10.280;2023-11-18T13:12:44;101846.00;;;6.10
25514;BMP180;48128;54.242;10.280;2023-11-18T13:15:12;101845.00;;;6.10
25514;BMP180;48128;54.242;10.280;2023-11-18T13:17:39;101830.00;;;6.20
25514;BMP180;48128;54.242;10.280;2023-11-18T13:20:12;101823.00;;;6.10
25514;BMP180;48128;54.242;10.280;2023-11-18T13:22:44;101825.00;;;6.10
25514;BMP180;48128;54.242;10.280;2023-11-18T13:25:14;101822.00;;;6.00
25514;BMP180;48128;54.242;10.280;2023-11-18T13:27:43;101819.00;;;6.00
25514;BMP180;48128;54.242;10.280;2023-11-18T13:30:11;101800.00;;;6.00
25514;BMP180;48128;54.242;10.280;2023-11-18T13:32:41;101792.00;;;5.90
25514;BMP180;48128;54.242;10.280;2023-11-18T13:35:10;101774.00;;;5.90
25514;BMP180;48128;54.242;10.280;2023-11-18T13:37:37;101773.00;;;5.80
25514;BMP180;48128;54.242;10.280;2023-11-18T13:40:05;101785.00;;;5.80
25514;BMP180;48128;54.242;10.280;2023-11-18T13:42:32;101781.00;;;5.80
25514;BMP180;48128;54.242;10.280;2023-11-18T13:45:03;101773.00;;;5.80
25514;BMP180;48128;54.242;10.280;2023-11-18T13:47:38;101754.00;;;5.70
25514;BMP180;48128;54.242;10.280;2023-11-18T13:50:07;101751.00;;;5.70
25514;BMP180;48128;54.242;10.280;2023-11-18T13:52:36;101761.00;;;5.60
25514;BMP180;48128;54.242;10.280;2023-11-18T13:55:06;101736.00;;;5.60
25514;BMP180;48128;54.242;10.280;2023-11-18T13:57:34;101734.00;;;5.60
25514;BMP180;48128;54.242;10.280;2023-11-18T14:00:01;101728.00;;;5.50
25514;BMP180;48128;54.242;10.280;2023-11-18T14:02:33;101726.00;;;5.50
25514;BMP180;48128;54.242;10.280;2023-11-18T14:05:03;101717.00;;;5.50
25514;BMP180;48128;54.242;10.280;2023-11-18T14:07:37;101702.00;;;5.40
25514;BMP180;48128;54.242;10.280;2023-11-18T14:10:06;101691.00;;;5.40
25514;BMP180;48128;54.242;10.280;2023-11-18T14:12:35;101690.00;;;5.30
25514;BMP180;48128;54.242;10.280;2023-11-18T14:15:02;101687.00;;;5.30
25514;BMP180;48128;54.242;10.280;2023-11-18T14:17:30;101690.00;;;5.30
25514;BMP180;48128;54.242;10.280;2023-11-18T14:19:57;101687.00;;;5.20
25514;BMP180;48128;54.242;10.280;2023-11-18T14:22:25;101690.00;;;5.20
25514;BMP180;48128;54.242;10.280;2023-11-18T14:24:51;101677.00;;;5.20
25514;BMP180;48128;54.242;10.280;2023-11-18T14:27:20;101673.00;;;5.20
25514;BMP180;48128;54.242;10.280;2023-11-18T14:29:47;101683.00;;;5.10
25514;BMP180;48128;54.242;10.280;2023-11-18T14:32:13;101675.00;;;5.10